Ernest Campbell — WDB3005 — position and weather

sailwx.info

Track history (hours):
 
Tides and Currents Weather Stations Pressure Air Temp Water Temp Dewpoint Dewpoint Depression Visibility Wind Speed Wind Dir Waves Ship Positions

Ernest Campbell

Owner: Campbell Leasing Company LLC, Wrangell, AK. More information available from US FCC via Universal Licensing System and Coast Guard Vessel Documentation Center.

Last reported at 2014-Dec-20 09:33 UTC. Time now 2014-Dec-20 10:27 UTC.
Position N 48°08' W 123°26'.

Length 33 m; draft 4.6 m.

Type: Tow > 200 m length. MMSI: 366882320.

Date/timePositionNaut miles runAvg speedWind from/ knotsBaromVisibWave heightAir tempDewpointWater temp
2014-Dec-20 09:33N 48°08' W 123°26'0 0.0
2014-Dec-20 08:33N 48°08' W 123°26'0 0.0
2014-Dec-20 07:32N 48°08' W 123°26'0 0.0
2014-Dec-20 06:33N 48°08' W 123°26'0 0.0
2014-Dec-20 05:30N 48°08' W 123°26'0 0.0
2014-Dec-20 04:16N 48°08' W 123°26'0 0.0
2014-Dec-20 03:33N 48°08' W 123°26'1 0.6
2014-Dec-20 02:33N 48°08' W 123°26'0 0.0
2014-Dec-20 01:32N 48°08' W 123°26'0 0.0
2014-Dec-20 00:30N 48°08' W 123°26'0 0.0
2014-Dec-19 23:32N 48°08' W 123°26'0 0.0
2014-Dec-19 22:26N 48°08' W 123°26'0 0.0
2014-Dec-19 21:19N 48°08' W 123°26'0 0.1
2014-Dec-19 20:33N 48°08' W 123°26'0 0.1
2014-Dec-19 19:33N 48°08' W 123°26'3 3.2
2014-Dec-19 18:33N 48°09' W 123°21'8 6.8
2014-Dec-19 17:27N 48°12' W 123°11'3 3.4
2014-Dec-19 16:28N 48°13' W 123°06'4 3.9
2014-Dec-19 15:28N 48°12' W 123°00'6 4.5
2014-Dec-19 14:08N 48°12' W 122°52'11 5.1
2014-Dec-19 12:04N 48°06' W 122°39'2 4.1
2014-Dec-19 11:33N 48°04' W 122°38'5 4.7
2014-Dec-19 10:32N 47°60' W 122°35'4 4.0
2014-Dec-19 09:33N 47°57' W 122°31'5 4.6
2014-Dec-19 08:33N 47°53' W 122°28'5 5.3
2014-Dec-19 07:33N 47°48' W 122°26'5 5.4
2014-Dec-19 06:34N 47°42' W 122°26'5 5.0
2014-Dec-19 05:33N 47°37' W 122°25'4 3.7
2014-Dec-19 04:33N 47°35' W 122°21'1 0.8
2014-Dec-19 03:33N 47°34' W 122°21'0 0.0
2014-Dec-19 02:33N 47°34' W 122°21'1 0.8
2014-Dec-19 01:33N 47°35' W 122°21'0 0.0
2014-Dec-19 00:33N 47°35' W 122°21'0 0.0
2014-Dec-18 23:33N 47°35' W 122°21'0 0.5
2014-Dec-18 22:33N 47°35' W 122°21'0 0.5
2014-Dec-18 21:33N 47°35' W 122°21'1 1.0
2014-Dec-18 20:33N 47°36' W 122°22'3 2.6
2014-Dec-18 19:33N 47°37' W 122°25'4 4.2
2014-Dec-18 18:33N 47°41' W 122°28'5 5.5
2014-Dec-18 17:33N 47°46' W 122°27'6 6.2
2014-Dec-18 16:33N 47°52' W 122°29'6 6.0
2014-Dec-18 15:33N 47°57' W 122°34'6 5.7
2014-Dec-18 14:33N 48°02' W 122°39'5 5.1
2014-Dec-18 13:29N 48°07' W 122°42'5 5.1
2014-Dec-18 12:33N 48°10' W 122°47'6 5.7
2014-Dec-18 11:33N 48°11' W 122°56'7 6.8
2014-Dec-18 10:33N 48°12' W 123°06'7 7.4
2014-Dec-18 09:33N 48°09' W 123°16'6 6.0
2014-Dec-18 08:33N 48°08' W 123°25'1 1.1
2014-Dec-18 07:33N 48°08' W 123°26'0 0.0
2014-Dec-18 06:33N 48°08' W 123°26'0 0.0
2014-Dec-18 05:34N 48°08' W 123°26'0 0.0
2014-Dec-18 04:33N 48°08' W 123°26'0 0.0
2014-Dec-18 03:33N 48°08' W 123°26'0 0.0
2014-Dec-18 02:33N 48°08' W 123°26'0 0.0
2014-Dec-18 01:33N 48°08' W 123°26'0 0.0
2014-Dec-18 00:34N 48°08' W 123°26'0 0.0
2014-Dec-17 23:33N 48°08' W 123°26'0 0.0
2014-Dec-17 22:33N 48°08' W 123°26'0 0.0
2014-Dec-17 21:33N 48°08' W 123°26'0 0.0
2014-Dec-17 20:33N 48°08' W 123°26'0 0.0
2014-Dec-17 19:33N 48°08' W 123°26'0 0.0
2014-Dec-17 18:33N 48°08' W 123°26'0 0.0
2014-Dec-17 17:34N 48°08' W 123°26'0 0.0
2014-Dec-17 16:33N 48°08' W 123°26'0 0.0
2014-Dec-17 15:33N 48°08' W 123°26'0 0.0
2014-Dec-17 14:33N 48°08' W 123°26'0 0.0
2014-Dec-17 13:33N 48°08' W 123°26'0 0.0
2014-Dec-17 12:33N 48°08' W 123°26'0 0.0
2014-Dec-17 11:34N 48°08' W 123°26'0 0.0
2014-Dec-17 10:33N 48°08' W 123°26'0 0.0
2014-Dec-17 09:33N 48°08' W 123°26'0 0.0
2014-Dec-17 08:33N 48°08' W 123°26'0 0.0
2014-Dec-17 07:33N 48°08' W 123°26'0 0.0
2014-Dec-17 06:33N 48°08' W 123°26'0 0.0
2014-Dec-17 05:33N 48°08' W 123°26'0 0.0
2014-Dec-17 04:33N 48°08' W 123°26'0 0.0
2014-Dec-17 03:33N 48°08' W 123°26'0 0.0
2014-Dec-17 02:33N 48°08' W 123°26'0 0.0
2014-Dec-17 01:33N 48°08' W 123°26'0 0.0
2014-Dec-17 00:33N 48°08' W 123°26'0 0.0
2014-Dec-16 23:33N 48°08' W 123°26'0 0.0
2014-Dec-16 22:33N 48°08' W 123°26'0 0.0
2014-Dec-16 21:33N 48°08' W 123°26'0 0.0
2014-Dec-16 20:33N 48°08' W 123°26'0 0.0
2014-Dec-16 19:33N 48°08' W 123°26'0 0.0
2014-Dec-16 18:33N 48°08' W 123°26'0 0.0
2014-Dec-16 17:33N 48°08' W 123°26'0 0.0
2014-Dec-16 16:33N 48°08' W 123°26'0 0.0
2014-Dec-16 15:33N 48°08' W 123°26'0 0.0
2014-Dec-16 14:33N 48°08' W 123°26'0 0.0
2014-Dec-16 13:33N 48°08' W 123°26'0 0.0
2014-Dec-16 12:33N 48°08' W 123°26'0 0.0
2014-Dec-16 11:33N 48°08' W 123°26'0 0.0
2014-Dec-16 10:33N 48°08' W 123°26'0 0.0
2014-Dec-16 09:33N 48°08' W 123°26'0 0.0
2014-Dec-16 08:33N 48°08' W 123°26'0 0.0
2014-Dec-16 07:33N 48°08' W 123°26'0 0.0
2014-Dec-16 06:33N 48°08' W 123°26'0 0.0
2014-Dec-16 05:33N 48°08' W 123°26'0 0.0
2014-Dec-16 04:32N 48°08' W 123°26'0 0.0
2014-Dec-16 03:32N 48°08' W 123°26'0 0.0
2014-Dec-16 02:33N 48°08' W 123°26'0 0.0
2014-Dec-16 01:33N 48°08' W 123°26'0 0.0
2014-Dec-16 00:33N 48°08' W 123°26'0 0.0
2014-Dec-15 23:33N 48°08' W 123°26'0 0.0
2014-Dec-15 22:33N 48°08' W 123°26'0 0.0
2014-Dec-15 21:33N 48°08' W 123°26'0 0.0
2014-Dec-15 20:33N 48°08' W 123°26'0 0.0
2014-Dec-15 19:33N 48°08' W 123°26'0 0.0
2014-Dec-15 18:33N 48°08' W 123°26'0 0.0
2014-Dec-15 17:34N 48°08' W 123°26'0 0.0
2014-Dec-15 16:33N 48°08' W 123°26'0 0.0
2014-Dec-15 15:33N 48°08' W 123°26'0 0.0
2014-Dec-15 14:33N 48°08' W 123°26'0 0.0
2014-Dec-15 13:33N 48°08' W 123°26'0 0.0
2014-Dec-15 12:33N 48°08' W 123°26'0 0.0
2014-Dec-15 11:34N 48°08' W 123°26'0 0.0
2014-Dec-15 10:33N 48°08' W 123°26'0 0.0
2014-Dec-15 09:33N 48°08' W 123°26'0 0.0
2014-Dec-15 08:33N 48°08' W 123°26'0 0.0
2014-Dec-15 07:33N 48°08' W 123°26'0 0.0
2014-Dec-15 06:33N 48°08' W 123°26'0 0.0
2014-Dec-15 05:33N 48°08' W 123°26'0 0.0
2014-Dec-15 04:33N 48°08' W 123°26'0 0.0
2014-Dec-15 03:33N 48°08' W 123°26'0 0.0
2014-Dec-15 02:33N 48°08' W 123°26'0 0.0
2014-Dec-15 01:34N 48°08' W 123°26'0 0.0
2014-Dec-15 00:33N 48°08' W 123°26'0 0.0
2014-Dec-14 23:33N 48°08' W 123°26'0 0.0
2014-Dec-14 22:33N 48°08' W 123°26'0 0.0
2014-Dec-14 21:33N 48°08' W 123°26'0 0.0
2014-Dec-14 20:33N 48°08' W 123°26'0 0.0
2014-Dec-14 19:34N 48°08' W 123°26'0 0.0
2014-Dec-14 18:33N 48°08' W 123°26'0 0.0
2014-Dec-14 17:33N 48°08' W 123°26'0 0.0
2014-Dec-14 16:33N 48°08' W 123°26'0 0.0
2014-Dec-14 15:33N 48°08' W 123°26'0 0.0
2014-Dec-14 14:33N 48°08' W 123°26'0 0.0
2014-Dec-14 13:33N 48°08' W 123°26'0 0.0
2014-Dec-14 12:33N 48°08' W 123°26'0 0.0
2014-Dec-14 11:33N 48°08' W 123°26'0 0.0
2014-Dec-14 10:33N 48°08' W 123°26'0 0.0
2014-Dec-14 09:33N 48°08' W 123°26'0 0.0
2014-Dec-14 08:33N 48°08' W 123°26'0 0.0
2014-Dec-14 07:33N 48°08' W 123°26'0 0.0
2014-Dec-14 06:33N 48°08' W 123°26'0 0.0
2014-Dec-14 05:33N 48°08' W 123°26'0 0.0
2014-Dec-14 04:33N 48°08' W 123°26'0 0.0
2014-Dec-14 03:32N 48°08' W 123°26'0 0.0
2014-Dec-14 02:33N 48°08' W 123°26'0 0.0
2014-Dec-14 01:32N 48°08' W 123°26'0 0.0
2014-Dec-14 00:33N 48°08' W 123°26'0 0.0
2014-Dec-13 23:33N 48°08' W 123°26'0 0.0
2014-Dec-13 22:33N 48°08' W 123°26'0 0.0
2014-Dec-13 21:33N 48°08' W 123°26'0 0.0
2014-Dec-13 20:33N 48°08' W 123°26'0 0.0
2014-Dec-13 19:33N 48°08' W 123°26'0 0.0
2014-Dec-13 18:30N 48°08' W 123°26'0 0.0
2014-Dec-13 17:33N 48°08' W 123°26'0 0.0
2014-Dec-13 16:33N 48°08' W 123°26'0 0.0
2014-Dec-13 14:23N 48°08' W 123°26'0 0.0
2014-Dec-13 13:31N 48°08' W 123°26'0 0.0
2014-Dec-13 12:11N 48°08' W 123°26'0 0.0
2014-Dec-13 11:33N 48°08' W 123°26'0 0.0
2014-Dec-13 10:20N 48°08' W 123°26'0 0.0
2014-Dec-13 09:33N 48°08' W 123°26'0 0.0
2014-Dec-13 08:27N 48°08' W 123°26'0 0.0
2014-Dec-13 07:29N 48°08' W 123°26'0 0.0
2014-Dec-13 06:21N 48°08' W 123°26'0 0.0
2014-Dec-13 04:11N 48°08' W 123°26'0 0.0
2014-Dec-13 03:32N 48°08' W 123°26'0 0.0
2014-Dec-13 02:28N 48°08' W 123°26'0 0.0
2014-Dec-13 01:32N 48°08' W 123°26'0 0.0
2014-Dec-13 00:33N 48°08' W 123°26'0 0.0
2014-Dec-12 23:33N 48°08' W 123°26'0 0.0
2014-Dec-12 22:27N 48°08' W 123°26'0 0.4
2014-Dec-12 21:33N 48°08' W 123°26'1 0.7
2014-Dec-12 20:33N 48°08' W 123°25'0 0.0
2014-Dec-12 19:33N 48°08' W 123°25'0 0.1
2014-Dec-12 18:34N 48°08' W 123°25'0 0.0
2014-Dec-12 17:33N 48°08' W 123°25'0 0.0
2014-Dec-12 16:33N 48°08' W 123°25'0 0.0
2014-Dec-12 15:33N 48°08' W 123°25'0 0.0
2014-Dec-12 14:33N 48°08' W 123°25'1 0.5
2014-Dec-12 13:33N 48°08' W 123°24'3 2.7
2014-Dec-12 12:33N 48°09' W 123°21'4 4.3
2014-Dec-12 11:32N 48°11' W 123°15'4 4.1
2014-Dec-12 10:33N 48°12' W 123°09'4 4.0
2014-Dec-12 09:33N 48°13' W 123°03'5 4.6
2014-Dec-12 08:33N 48°12' W 122°56'14 6.0
2014-Dec-12 06:13N 48°05' W 122°38'5 7.4
2014-Dec-12 05:33N 48°00' W 122°36'6 6.3
2014-Dec-12 04:34N 47°56' W 122°30'6 6.3
2014-Dec-12 03:33N 47°50' W 122°27'6 6.3
2014-Dec-12 02:33N 47°44' W 122°26'5 5.4
2014-Dec-12 01:33N 47°38' W 122°26'4 4.4
2014-Dec-12 00:33N 47°36' W 122°21'0 0.1
2014-Dec-11 23:33N 47°35' W 122°21'0 0.0
2014-Dec-11 22:33N 47°35' W 122°21'0 0.0
2014-Dec-11 21:33N 47°35' W 122°21'0 0.0
2014-Dec-11 20:33N 47°35' W 122°21'1 1.0
2014-Dec-11 19:33N 47°34' W 122°21'0 0.0
2014-Dec-11 18:33N 47°34' W 122°21'1 1.0
2014-Dec-11 17:33N 47°35' W 122°21'0 0.0
2014-Dec-11 16:33N 47°35' W 122°21'0 0.0
2014-Dec-11 15:33N 47°35' W 122°21'0 0.0
2014-Dec-11 14:33N 47°35' W 122°21'0 0.0
2014-Dec-11 13:33N 47°35' W 122°21'0 0.0
2014-Dec-11 12:33N 47°35' W 122°21'0 0.1
2014-Dec-11 11:33N 47°36' W 122°21'0 0.1
2014-Dec-11 10:33N 47°35' W 122°21'0 0.0
2014-Dec-11 09:33N 47°35' W 122°21'0 0.0
2014-Dec-11 08:33N 47°35' W 122°21'0 0.0
2014-Dec-11 07:33N 47°35' W 122°21'0 0.0
2014-Dec-11 06:33N 47°35' W 122°21'0 0.3
2014-Dec-11 05:33N 47°36' W 122°21'0 0.3
2014-Dec-11 04:33N 47°35' W 122°21'0 0.0
2014-Dec-11 03:33N 47°35' W 122°21'0 0.0
2014-Dec-11 02:31N 47°35' W 122°21'0 0.0
2014-Dec-11 01:34N 47°35' W 122°21'0 0.0
2014-Dec-11 00:34N 47°35' W 122°21'0 0.2
2014-Dec-10 23:33N 47°35' W 122°21'1 0.9
2014-Dec-10 22:33N 47°34' W 122°21'0 0.0
2014-Dec-10 21:33N 47°34' W 122°21'0 0.0
2014-Dec-10 20:29N 47°34' W 122°21'0 0.0
2014-Dec-10 19:33N 47°34' W 122°21'0 0.0
2014-Dec-10 18:33N 47°34' W 122°21'1 1.0
2014-Dec-10 17:33N 47°35' W 122°21'0 0.0
2014-Dec-10 16:33N 47°35' W 122°21'0 0.0
2014-Dec-10 15:33N 47°35' W 122°21'0 0.0
2014-Dec-10 14:33N 47°35' W 122°21'0 0.0
2014-Dec-10 13:33N 47°35' W 122°21'0 0.0
2014-Dec-10 12:33N 47°35' W 122°21'0 0.0
2014-Dec-10 11:33N 47°35' W 122°21'0 0.0
2014-Dec-10 10:32N 47°35' W 122°21'0 0.0
2014-Dec-10 09:33N 47°35' W 122°21'  
Track history (hours):
 
Tides and Currents Weather Stations Pressure Air Temp Water Temp Dewpoint Dewpoint Depression Visibility Wind Speed Wind Dir Waves Ship Positions

Ernest Campbell

Owner: Campbell Leasing Company LLC, Wrangell, AK. More information available from US FCC via Universal Licensing System and Coast Guard Vessel Documentation Center.

Last reported at 2014-Dec-20 09:33 UTC. Time now 2014-Dec-20 10:27 UTC.
Position N 48°08' W 123°26'.

Length 33 m; draft 4.6 m.

Type: Tow > 200 m length. MMSI: 366882320.

Date/timePositionNaut miles runAvg speedWind from/ knotsBaromVisibWave heightAir tempDewpointWater temp
2014-Dec-20 09:33N 48°08' W 123°26'0 0.0
2014-Dec-20 08:33N 48°08' W 123°26'0 0.0
2014-Dec-20 07:32N 48°08' W 123°26'0 0.0
2014-Dec-20 06:33N 48°08' W 123°26'0 0.0
2014-Dec-20 05:30N 48°08' W 123°26'0 0.0
2014-Dec-20 04:16N 48°08' W 123°26'0 0.0
2014-Dec-20 03:33N 48°08' W 123°26'1 0.6
2014-Dec-20 02:33N 48°08' W 123°26'0 0.0
2014-Dec-20 01:32N 48°08' W 123°26'0 0.0
2014-Dec-20 00:30N 48°08' W 123°26'0 0.0
2014-Dec-19 23:32N 48°08' W 123°26'0 0.0
2014-Dec-19 22:26N 48°08' W 123°26'0 0.0
2014-Dec-19 21:19N 48°08' W 123°26'0 0.1
2014-Dec-19 20:33N 48°08' W 123°26'0 0.1
2014-Dec-19 19:33N 48°08' W 123°26'3 3.2
2014-Dec-19 18:33N 48°09' W 123°21'8 6.8
2014-Dec-19 17:27N 48°12' W 123°11'3 3.4
2014-Dec-19 16:28N 48°13' W 123°06'4 3.9
2014-Dec-19 15:28N 48°12' W 123°00'6 4.5
2014-Dec-19 14:08N 48°12' W 122°52'11 5.1
2014-Dec-19 12:04N 48°06' W 122°39'2 4.1
2014-Dec-19 11:33N 48°04' W 122°38'5 4.7
2014-Dec-19 10:32N 47°60' W 122°35'4 4.0
2014-Dec-19 09:33N 47°57' W 122°31'5 4.6
2014-Dec-19 08:33N 47°53' W 122°28'5 5.3
2014-Dec-19 07:33N 47°48' W 122°26'5 5.4
2014-Dec-19 06:34N 47°42' W 122°26'5 5.0
2014-Dec-19 05:33N 47°37' W 122°25'4 3.7
2014-Dec-19 04:33N 47°35' W 122°21'1 0.8
2014-Dec-19 03:33N 47°34' W 122°21'0 0.0
2014-Dec-19 02:33N 47°34' W 122°21'1 0.8
2014-Dec-19 01:33N 47°35' W 122°21'0 0.0
2014-Dec-19 00:33N 47°35' W 122°21'0 0.0
2014-Dec-18 23:33N 47°35' W 122°21'0 0.5
2014-Dec-18 22:33N 47°35' W 122°21'0 0.5
2014-Dec-18 21:33N 47°35' W 122°21'1 1.0
2014-Dec-18 20:33N 47°36' W 122°22'3 2.6
2014-Dec-18 19:33N 47°37' W 122°25'4 4.2
2014-Dec-18 18:33N 47°41' W 122°28'5 5.5
2014-Dec-18 17:33N 47°46' W 122°27'6 6.2
2014-Dec-18 16:33N 47°52' W 122°29'6 6.0
2014-Dec-18 15:33N 47°57' W 122°34'6 5.7
2014-Dec-18 14:33N 48°02' W 122°39'5 5.1
2014-Dec-18 13:29N 48°07' W 122°42'5 5.1
2014-Dec-18 12:33N 48°10' W 122°47'6 5.7
2014-Dec-18 11:33N 48°11' W 122°56'7 6.8
2014-Dec-18 10:33N 48°12' W 123°06'7 7.4
2014-Dec-18 09:33N 48°09' W 123°16'6 6.0
2014-Dec-18 08:33N 48°08' W 123°25'1 1.1
2014-Dec-18 07:33N 48°08' W 123°26'0 0.0
2014-Dec-18 06:33N 48°08' W 123°26'0 0.0
2014-Dec-18 05:34N 48°08' W 123°26'0 0.0
2014-Dec-18 04:33N 48°08' W 123°26'0 0.0
2014-Dec-18 03:33N 48°08' W 123°26'0 0.0
2014-Dec-18 02:33N 48°08' W 123°26'0 0.0
2014-Dec-18 01:33N 48°08' W 123°26'0 0.0
2014-Dec-18 00:34N 48°08' W 123°26'0 0.0
2014-Dec-17 23:33N 48°08' W 123°26'0 0.0
2014-Dec-17 22:33N 48°08' W 123°26'0 0.0
2014-Dec-17 21:33N 48°08' W 123°26'0 0.0
2014-Dec-17 20:33N 48°08' W 123°26'0 0.0
2014-Dec-17 19:33N 48°08' W 123°26'0 0.0
2014-Dec-17 18:33N 48°08' W 123°26'0 0.0
2014-Dec-17 17:34N 48°08' W 123°26'0 0.0
2014-Dec-17 16:33N 48°08' W 123°26'0 0.0
2014-Dec-17 15:33N 48°08' W 123°26'0 0.0
2014-Dec-17 14:33N 48°08' W 123°26'0 0.0
2014-Dec-17 13:33N 48°08' W 123°26'0 0.0
2014-Dec-17 12:33N 48°08' W 123°26'0 0.0
2014-Dec-17 11:34N 48°08' W 123°26'0 0.0
2014-Dec-17 10:33N 48°08' W 123°26'0 0.0
2014-Dec-17 09:33N 48°08' W 123°26'0 0.0
2014-Dec-17 08:33N 48°08' W 123°26'0 0.0
2014-Dec-17 07:33N 48°08' W 123°26'0 0.0
2014-Dec-17 06:33N 48°08' W 123°26'0 0.0
2014-Dec-17 05:33N 48°08' W 123°26'0 0.0
2014-Dec-17 04:33N 48°08' W 123°26'0 0.0
2014-Dec-17 03:33N 48°08' W 123°26'0 0.0
2014-Dec-17 02:33N 48°08' W 123°26'0 0.0
2014-Dec-17 01:33N 48°08' W 123°26'0 0.0
2014-Dec-17 00:33N 48°08' W 123°26'0 0.0
2014-Dec-16 23:33N 48°08' W 123°26'0 0.0
2014-Dec-16 22:33N 48°08' W 123°26'0 0.0
2014-Dec-16 21:33N 48°08' W 123°26'0 0.0
2014-Dec-16 20:33N 48°08' W 123°26'0 0.0
2014-Dec-16 19:33N 48°08' W 123°26'0 0.0
2014-Dec-16 18:33N 48°08' W 123°26'0 0.0
2014-Dec-16 17:33N 48°08' W 123°26'0 0.0
2014-Dec-16 16:33N 48°08' W 123°26'0 0.0
2014-Dec-16 15:33N 48°08' W 123°26'0 0.0
2014-Dec-16 14:33N 48°08' W 123°26'0 0.0
2014-Dec-16 13:33N 48°08' W 123°26'0 0.0
2014-Dec-16 12:33N 48°08' W 123°26'0 0.0
2014-Dec-16 11:33N 48°08' W 123°26'0 0.0
2014-Dec-16 10:33N 48°08' W 123°26'0 0.0
2014-Dec-16 09:33N 48°08' W 123°26'0 0.0
2014-Dec-16 08:33N 48°08' W 123°26'0 0.0
2014-Dec-16 07:33N 48°08' W 123°26'0 0.0
2014-Dec-16 06:33N 48°08' W 123°26'0 0.0
2014-Dec-16 05:33N 48°08' W 123°26'0 0.0
2014-Dec-16 04:32N 48°08' W 123°26'0 0.0
2014-Dec-16 03:32N 48°08' W 123°26'0 0.0
2014-Dec-16 02:33N 48°08' W 123°26'0 0.0
2014-Dec-16 01:33N 48°08' W 123°26'0 0.0
2014-Dec-16 00:33N 48°08' W 123°26'0 0.0
2014-Dec-15 23:33N 48°08' W 123°26'0 0.0
2014-Dec-15 22:33N 48°08' W 123°26'0 0.0
2014-Dec-15 21:33N 48°08' W 123°26'0 0.0
2014-Dec-15 20:33N 48°08' W 123°26'0 0.0
2014-Dec-15 19:33N 48°08' W 123°26'0 0.0
2014-Dec-15 18:33N 48°08' W 123°26'0 0.0
2014-Dec-15 17:34N 48°08' W 123°26'0 0.0
2014-Dec-15 16:33N 48°08' W 123°26'0 0.0
2014-Dec-15 15:33N 48°08' W 123°26'0 0.0
2014-Dec-15 14:33N 48°08' W 123°26'0 0.0
2014-Dec-15 13:33N 48°08' W 123°26'0 0.0
2014-Dec-15 12:33N 48°08' W 123°26'0 0.0
2014-Dec-15 11:34N 48°08' W 123°26'0 0.0
2014-Dec-15 10:33N 48°08' W 123°26'0 0.0
2014-Dec-15 09:33N 48°08' W 123°26'0 0.0
2014-Dec-15 08:33N 48°08' W 123°26'0 0.0
2014-Dec-15 07:33N 48°08' W 123°26'0 0.0
2014-Dec-15 06:33N 48°08' W 123°26'0 0.0
2014-Dec-15 05:33N 48°08' W 123°26'0 0.0
2014-Dec-15 04:33N 48°08' W 123°26'0 0.0
2014-Dec-15 03:33N 48°08' W 123°26'0 0.0
2014-Dec-15 02:33N 48°08' W 123°26'0 0.0
2014-Dec-15 01:34N 48°08' W 123°26'0 0.0
2014-Dec-15 00:33N 48°08' W 123°26'0 0.0
2014-Dec-14 23:33N 48°08' W 123°26'0 0.0
2014-Dec-14 22:33N 48°08' W 123°26'0 0.0
2014-Dec-14 21:33N 48°08' W 123°26'0 0.0
2014-Dec-14 20:33N 48°08' W 123°26'0 0.0
2014-Dec-14 19:34N 48°08' W 123°26'0 0.0
2014-Dec-14 18:33N 48°08' W 123°26'0 0.0
2014-Dec-14 17:33N 48°08' W 123°26'0 0.0
2014-Dec-14 16:33N 48°08' W 123°26'0 0.0
2014-Dec-14 15:33N 48°08' W 123°26'0 0.0
2014-Dec-14 14:33N 48°08' W 123°26'0 0.0
2014-Dec-14 13:33N 48°08' W 123°26'0 0.0
2014-Dec-14 12:33N 48°08' W 123°26'0 0.0
2014-Dec-14 11:33N 48°08' W 123°26'0 0.0
2014-Dec-14 10:33N 48°08' W 123°26'0 0.0
2014-Dec-14 09:33N 48°08' W 123°26'0 0.0
2014-Dec-14 08:33N 48°08' W 123°26'0 0.0
2014-Dec-14 07:33N 48°08' W 123°26'0 0.0
2014-Dec-14 06:33N 48°08' W 123°26'0 0.0
2014-Dec-14 05:33N 48°08' W 123°26'0 0.0
2014-Dec-14 04:33N 48°08' W 123°26'0 0.0
2014-Dec-14 03:32N 48°08' W 123°26'0 0.0
2014-Dec-14 02:33N 48°08' W 123°26'0 0.0
2014-Dec-14 01:32N 48°08' W 123°26'0 0.0
2014-Dec-14 00:33N 48°08' W 123°26'0 0.0
2014-Dec-13 23:33N 48°08' W 123°26'0 0.0
2014-Dec-13 22:33N 48°08' W 123°26'0 0.0
2014-Dec-13 21:33N 48°08' W 123°26'0 0.0
2014-Dec-13 20:33N 48°08' W 123°26'0 0.0
2014-Dec-13 19:33N 48°08' W 123°26'0 0.0
2014-Dec-13 18:30N 48°08' W 123°26'0 0.0
2014-Dec-13 17:33N 48°08' W 123°26'0 0.0
2014-Dec-13 16:33N 48°08' W 123°26'0 0.0
2014-Dec-13 14:23N 48°08' W 123°26'0 0.0
2014-Dec-13 13:31N 48°08' W 123°26'0 0.0
2014-Dec-13 12:11N 48°08' W 123°26'0 0.0
2014-Dec-13 11:33N 48°08' W 123°26'0 0.0
2014-Dec-13 10:20N 48°08' W 123°26'0 0.0
2014-Dec-13 09:33N 48°08' W 123°26'0 0.0
2014-Dec-13 08:27N 48°08' W 123°26'0 0.0
2014-Dec-13 07:29N 48°08' W 123°26'0 0.0
2014-Dec-13 06:21N 48°08' W 123°26'0 0.0
2014-Dec-13 04:11N 48°08' W 123°26'0 0.0
2014-Dec-13 03:32N 48°08' W 123°26'0 0.0
2014-Dec-13 02:28N 48°08' W 123°26'0 0.0
2014-Dec-13 01:32N 48°08' W 123°26'0 0.0
2014-Dec-13 00:33N 48°08' W 123°26'0 0.0
2014-Dec-12 23:33N 48°08' W 123°26'0 0.0
2014-Dec-12 22:27N 48°08' W 123°26'0 0.4
2014-Dec-12 21:33N 48°08' W 123°26'1 0.7
2014-Dec-12 20:33N 48°08' W 123°25'0 0.0
2014-Dec-12 19:33N 48°08' W 123°25'0 0.1
2014-Dec-12 18:34N 48°08' W 123°25'0 0.0
2014-Dec-12 17:33N 48°08' W 123°25'0 0.0
2014-Dec-12 16:33N 48°08' W 123°25'0 0.0
2014-Dec-12 15:33N 48°08' W 123°25'0 0.0
2014-Dec-12 14:33N 48°08' W 123°25'1 0.5
2014-Dec-12 13:33N 48°08' W 123°24'3 2.7
2014-Dec-12 12:33N 48°09' W 123°21'4 4.3
2014-Dec-12 11:32N 48°11' W 123°15'4 4.1
2014-Dec-12 10:33N 48°12' W 123°09'4 4.0
2014-Dec-12 09:33N 48°13' W 123°03'5 4.6
2014-Dec-12 08:33N 48°12' W 122°56'14 6.0
2014-Dec-12 06:13N 48°05' W 122°38'5 7.4
2014-Dec-12 05:33N 48°00' W 122°36'6 6.3
2014-Dec-12 04:34N 47°56' W 122°30'6 6.3
2014-Dec-12 03:33N 47°50' W 122°27'6 6.3
2014-Dec-12 02:33N 47°44' W 122°26'5 5.4
2014-Dec-12 01:33N 47°38' W 122°26'4 4.4
2014-Dec-12 00:33N 47°36' W 122°21'0 0.1
2014-Dec-11 23:33N 47°35' W 122°21'0 0.0
2014-Dec-11 22:33N 47°35' W 122°21'0 0.0
2014-Dec-11 21:33N 47°35' W 122°21'0 0.0
2014-Dec-11 20:33N 47°35' W 122°21'1 1.0
2014-Dec-11 19:33N 47°34' W 122°21'0 0.0
2014-Dec-11 18:33N 47°34' W 122°21'1 1.0
2014-Dec-11 17:33N 47°35' W 122°21'0 0.0
2014-Dec-11 16:33N 47°35' W 122°21'0 0.0
2014-Dec-11 15:33N 47°35' W 122°21'0 0.0
2014-Dec-11 14:33N 47°35' W 122°21'0 0.0
2014-Dec-11 13:33N 47°35' W 122°21'0 0.0
2014-Dec-11 12:33N 47°35' W 122°21'0 0.1
2014-Dec-11 11:33N 47°36' W 122°21'0 0.1
2014-Dec-11 10:33N 47°35' W 122°21'0 0.0
2014-Dec-11 09:33N 47°35' W 122°21'0 0.0
2014-Dec-11 08:33N 47°35' W 122°21'0 0.0
2014-Dec-11 07:33N 47°35' W 122°21'0 0.0
2014-Dec-11 06:33N 47°35' W 122°21'0 0.3
2014-Dec-11 05:33N 47°36' W 122°21'0 0.3
2014-Dec-11 04:33N 47°35' W 122°21'0 0.0
2014-Dec-11 03:33N 47°35' W 122°21'0 0.0
2014-Dec-11 02:31N 47°35' W 122°21'0 0.0
2014-Dec-11 01:34N 47°35' W 122°21'0 0.0
2014-Dec-11 00:34N 47°35' W 122°21'0 0.2
2014-Dec-10 23:33N 47°35' W 122°21'1 0.9
2014-Dec-10 22:33N 47°34' W 122°21'0 0.0
2014-Dec-10 21:33N 47°34' W 122°21'0 0.0
2014-Dec-10 20:29N 47°34' W 122°21'0 0.0
2014-Dec-10 19:33N 47°34' W 122°21'0 0.0
2014-Dec-10 18:33N 47°34' W 122°21'1 1.0
2014-Dec-10 17:33N 47°35' W 122°21'0 0.0
2014-Dec-10 16:33N 47°35' W 122°21'0 0.0
2014-Dec-10 15:33N 47°35' W 122°21'0 0.0
2014-Dec-10 14:33N 47°35' W 122°21'0 0.0
2014-Dec-10 13:33N 47°35' W 122°21'0 0.0
2014-Dec-10 12:33N 47°35' W 122°21'0 0.0
2014-Dec-10 11:33N 47°35' W 122°21'0 0.0
2014-Dec-10 10:32N 47°35' W 122°21'0 0.0
2014-Dec-10 09:33N 47°35' W 122°21'  

Dump ship's entire track history